CheckWX is a tool to help pilots better visualize weather data.  It is not intended as a substitute for an official pre-flight weather briefing.

07:30:20 UTC

CYMA TAF
Mayo Airport
Mayo, Canada
TAF CYMA 190548Z 1906/1918 VRB03KT P6SM BKN060 TEMPO 1906/1908 P6SM -SHRA VCTS OVC060CB FM190800 VRB03KT P6SM BKN060 RMK NXT FCST BY 191200Z

Jun-19@
06:00 UTC

Jun-19 @ 06:00 UTC

Jun-19@
08:00 UTC

Jun-19 @ 08:00 UTC

TAF CYMA 190548Z 1906/1918 VRB03KT P6SM BKN060
Wind
  • Variable at 3 KTS
Cloud Levels
  • Broken at 6,000' AGL

Jun-19@
06:00 UTC

Jun-19 @ 06:00 UTC

Jun-19@
08:00 UTC

Jun-19 @ 08:00 UTC

TEMPO 1906/1908 P6SM -SHRA VCTS OVC060CB

Temporary

Temporary Changes expected for less than half the time period

Conditions
Light Rain, Area Thunderstorm
Cloud Levels
  • Overcast at 6,000' AGL

Jun-19@
08:00 UTC

Jun-19 @ 08:00 UTC

Jun-19@
18:00 UTC

Jun-19 @ 18:00 UTC

FM190800 VRB03KT P6SM BKN060 RMK NXT FCST BY 191200Z

From

From Standard forecast or significant change

Wind
  • Variable at 3 KTS
Cloud Levels
  • Broken at 6,000' AGL